Time;durP1;ratioP1;P1;durP2;ratioP2;P2;SDS_P1;SDS_P2;PMS_P1;PMS_P2;Temp;Humidity;BMP_temperature;BMP_pressure;BME280_temperature;BME280_humidity;BME280_pressure;Samples;Min_cycle;Max_cycle;Signal;HPM_P1;HPM_P2
2022/08/17 00:00:18;;;;;;;9.05;7.82;;;20.70;99.90;;;-141.84;63.37;21255.03;4878064;29;20211;-48
2022/08/17 00:03:10;;;;;;;8.93;8.02;;;20.70;99.90;;;-141.84;64.11;21228.63;4878302;29;20204;-52
2022/08/17 00:05:47;;;;;;;8.30;7.50;;;20.60;99.90;;;-141.84;64.49;21214.38;4878746;29;20195;-54
2022/08/17 00:08:20;;;;;;;9.55;8.40;;;20.60;99.90;;;-141.84;64.30;21183.88;4877776;29;20317;-48
2022/08/17 00:10:50;;;;;;;9.80;7.80;;;20.60;99.90;;;-141.84;64.18;21218.44;4878093;29;20235;-49
2022/08/17 00:13:24;;;;;;;9.82;7.75;;;20.60;99.90;;;-141.84;64.27;21220.47;4878131;29;20235;-49
2022/08/17 00:15:58;;;;;;;9.02;8.13;;;20.60;99.90;;;-141.84;64.23;21192.03;4877947;29;20633;-47
2022/08/17 00:18:27;;;;;;;9.55;8.55;;;20.60;99.90;;;-141.84;64.27;21196.09;4877769;29;20317;-48
2022/08/17 00:21:21;;;;;;;9.82;8.32;;;20.60;99.90;;;-141.84;64.51;21157.47;4877785;29;20643;-53
2022/08/17 00:23:53;;;;;;;8.90;8.10;;;20.50;99.90;;;-141.84;64.88;21175.75;4878047;29;20200;-51
2022/08/17 00:26:24;;;;;;;8.15;7.40;;;20.50;99.90;;;-141.84;65.34;21133.06;4877930;29;20314;-53
2022/08/17 00:29:11;;;;;;;9.32;8.05;;;20.40;99.90;;;-141.84;65.42;21102.56;4877794;29;20242;-49
2022/08/17 00:31:47;;;;;;;8.10;7.40;;;20.40;99.90;;;-141.84;65.61;21122.91;4877918;29;20231;-53
2022/08/17 00:34:15;;;;;;;8.57;7.70;;;20.30;99.90;;;-141.84;65.49;21135.09;4877720;29;20257;-47
2022/08/17 00:36:44;;;;;;;9.10;7.55;;;20.30;99.90;;;-141.84;65.39;21098.50;4877856;29;20231;-50
2022/08/17 00:39:13;;;;;;;8.48;7.53;;;20.30;99.90;;;-141.84;65.70;21090.38;4877364;29;20632;-54
2022/08/17 00:41:41;;;;;;;8.50;7.53;;;20.30;99.90;;;-141.84;65.59;21098.50;4878188;29;20213;-51
2022/08/17 00:44:10;;;;;;;8.38;7.68;;;20.30;99.90;;;-141.84;65.60;21065.97;4877400;29;20254;-50
2022/08/17 00:46:42;;;;;;;10.65;8.18;;;20.30;99.90;;;-141.84;65.49;21082.25;4877576;29;20254;-48
2022/08/17 00:49:12;;;;;;;9.32;7.45;;;20.30;99.90;;;-141.84;65.44;21106.63;4877573;29;20237;-47
2022/08/17 00:51:47;;;;;;;8.38;6.78;;;20.30;99.90;;;-141.84;65.65;21082.25;4877665;29;20223;-47
2022/08/17 00:54:22;;;;;;;8.18;7.38;;;20.30;99.90;;;-141.84;65.76;21074.09;4877321;29;20705;-50
2022/08/17 00:56:56;;;;;;;7.53;6.82;;;20.30;99.90;;;-141.84;65.81;21070.03;4878127;29;20198;-53
2022/08/17 00:59:30;;;;;;;8.30;6.63;;;20.30;99.90;;;-141.84;65.86;21080.19;4877642;29;20225;-51
2022/08/17 01:02:01;;;;;;;7.57;6.88;;;20.30;99.90;;;-141.84;64.99;21118.84;4881508;29;20235;-50
2022/08/17 01:04:32;;;;;;;7.32;6.57;;;20.30;99.90;;;-141.84;65.22;21106.63;4881047;29;20241;-50
2022/08/17 01:07:05;;;;;;;9.50;7.57;;;20.30;99.90;;;-141.84;65.44;21104.59;4881388;29;20223;-51
2022/08/17 01:09:33;;;;;;;8.20;7.50;;;20.30;99.90;;;-141.84;65.47;21088.34;4881091;29;20231;-51
2022/08/17 01:12:02;;;;;;;9.35;6.90;;;20.30;99.90;;;-141.84;65.79;21094.44;4881106;29;20307;-47
2022/08/17 01:14:30;;;;;;;7.45;6.75;;;20.30;99.90;;;-141.84;65.65;21080.19;4881689;29;20230;-50
2022/08/17 01:17:00;;;;;;;8.25;6.90;;;20.30;99.90;;;-141.84;65.58;21126.97;4881026;29;20227;-50
2022/08/17 01:19:33;;;;;;;8.32;7.13;;;20.30;99.90;;;-141.84;64.90;21100.53;4880935;29;20261;-48
2022/08/17 01:22:17;;;;;;;7.68;6.85;;;20.30;99.90;;;-141.84;65.11;21106.63;4881062;29;20343;-46
2022/08/17 01:24:50;;;;;;;8.98;7.13;;;20.40;99.90;;;-141.84;64.78;21110.69;4880858;29;20231;-50
2022/08/17 01:27:20;;;;;;;8.30;7.28;;;20.40;99.90;;;-141.84;65.24;21072.06;4880942;29;20317;-52
2022/08/17 01:29:55;;;;;;;8.05;7.35;;;20.40;99.90;;;-141.84;65.55;21086.31;4881428;29;20306;-53
2022/08/17 01:32:24;;;;;;;8.38;7.40;;;20.40;99.90;;;-141.84;65.39;21086.31;4862509;29;20243;-52
2022/08/17 01:34:53;;;;;;;7.90;7.13;;;20.30;99.90;;;-141.84;65.18;21110.69;4876634;29;20729;-50
2022/08/17 01:37:34;;;;;;;8.48;7.20;;;20.30;99.90;;;-141.84;65.83;21094.44;4880635;29;20239;-49
2022/08/17 01:40:09;;;;;;;7.68;6.85;;;20.30;99.90;;;-141.84;66.54;21076.13;4880526;29;20235;-52
2022/08/17 01:42:44;;;;;;;7.65;7.00;;;20.20;99.90;;;-141.84;66.87;21011.09;4880742;29;20231;-53
2022/08/17 01:45:21;;;;;;;7.97;7.10;;;20.20;99.90;;;-141.84;66.35;21041.56;4880437;29;20226;-50
2022/08/17 01:47:50;;;;;;;7.93;7.22;;;20.20;99.90;;;-141.84;65.58;21076.13;4880658;29;20586;-49
2022/08/17 01:50:25;;;;;;;9.40;7.60;;;20.20;99.90;;;-141.84;66.23;21072.06;4880744;29;20316;-53
2022/08/17 01:52:59;;;;;;;7.60;6.90;;;20.20;99.90;;;-141.84;66.65;21035.47;4880461;29;20226;-53
2022/08/17 01:55:36;;;;;;;8.05;7.35;;;20.10;99.90;;;-141.84;67.16;21023.28;4880237;29;20611;-51
2022/08/17 01:58:08;;;;;;;7.95;7.10;;;20.10;99.90;;;-141.84;67.14;21019.22;4880414;29;20763;-53
2022/08/17 02:00:38;;;;;;;7.38;6.60;;;20.10;99.90;;;-141.84;66.50;21057.84;4880272;29;20227;-49
2022/08/17 02:03:26;;;;;;;7.78;7.03;;;20.10;99.90;;;-141.84;66.69;21017.19;4880066;29;20242;-54
2022/08/17 02:05:55;;;;;;;7.63;6.90;;;20.10;99.90;;;-141.84;67.17;21037.50;4880572;29;20680;-51
2022/08/17 02:08:26;;;;;;;7.50;6.90;;;20.10;99.90;;;-141.84;66.84;21033.44;4879874;29;20251;-55
2022/08/17 02:11:10;;;;;;;7.90;7.10;;;20.10;99.90;;;-141.84;67.21;21031.41;4879280;29;20243;-52
2022/08/17 02:13:39;;;;;;;7.88;6.90;;;20.00;99.90;;;-141.84;67.73;20996.84;4879755;29;20227;-51
2022/08/17 02:16:07;;;;;;;7.75;6.90;;;20.00;99.90;;;-141.84;67.91;20982.63;4880051;29;20318;-54
2022/08/17 02:18:35;;;;;;;7.10;6.40;;;20.00;99.90;;;-141.84;68.25;20996.84;4880010;29;20338;-52
2022/08/17 02:21:05;;;;;;;8.30;6.85;;;19.90;99.90;;;-141.84;67.33;21015.16;4880150;29;20561;-52
2022/08/17 02:23:40;;;;;;;8.48;7.30;;;19.90;99.90;;;-141.84;68.08;21017.19;4880266;29;20648;-51
2022/08/17 02:26:09;;;;;;;7.35;6.65;;;19.90;99.90;;;-141.84;68.40;20974.50;4879982;29;20793;-54
2022/08/17 02:28:52;;;;;;;6.93;6.32;;;19.90;99.90;;;-141.84;68.68;21029.38;4879755;29;20238;-52
2022/08/17 02:31:21;;;;;;;7.80;7.10;;;19.90;99.90;;;-141.84;68.57;20960.25;4879871;29;20495;-51
2022/08/17 02:33:49;;;;;;;7.03;6.43;;;19.90;99.90;;;-141.84;67.73;21017.19;4879730;29;20314;-51
2022/08/17 02:36:33;;;;;;;7.40;6.10;;;19.90;99.90;;;-141.84;67.53;21000.91;4880065;29;20267;-52
2022/08/17 02:39:06;;;;;;;7.22;6.53;;;20.00;99.90;;;-141.84;67.56;21009.03;4879812;29;20575;-51
2022/08/17 02:41:35;;;;;;;7.43;6.03;;;20.00;99.90;;;-141.84;67.62;21013.13;4880313;29;20196;-55
2022/08/17 02:44:05;;;;;;;7.28;6.57;;;20.00;99.90;;;-141.84;67.99;21009.03;4879484;29;20265;-48
2022/08/17 02:46:34;;;;;;;7.45;6.30;;;20.00;99.90;;;-141.84;68.46;21000.91;4879637;29;20251;-49
2022/08/17 02:49:02;;;;;;;7.28;6.57;;;20.00;99.90;;;-141.84;68.16;21025.31;4879506;29;20245;-49
2022/08/17 02:51:30;;;;;;;7.57;6.15;;;20.00;99.90;;;-141.84;68.13;21011.09;4879349;29;20811;-49
2022/08/17 02:53:59;;;;;;;7.53;6.40;;;20.00;99.90;;;-141.84;68.41;21009.03;4879429;29;20207;-52
2022/08/17 02:56:48;;;;;;;6.68;6.07;;;20.00;99.90;;;-141.84;68.57;20964.31;4880003;29;20216;-51
2022/08/17 02:59:16;;;;;;;7.60;6.32;;;20.00;99.90;;;-141.84;68.55;21009.03;4879331;29;20231;-48
2022/08/17 03:01:44;;;;;;;7.00;6.22;;;20.00;99.90;;;-141.84;69.06;20990.75;4879401;29;20318;-50
2022/08/17 03:04:13;;;;;;;7.35;6.65;;;20.00;99.90;;;-141.84;69.35;21017.19;4879388;29;20227;-49
2022/08/17 03:06:41;;;;;;;7.20;6.50;;;20.00;99.90;;;-141.84;69.00;20988.72;4879354;29;20223;-48
2022/08/17 03:09:09;;;;;;;6.93;6.30;;;20.00;99.90;;;-141.84;68.42;20984.66;4879074;29;20585;-53
2022/08/17 03:11:37;;;;;;;7.53;6.78;;;20.00;99.90;;;-141.84;68.69;20980.59;4879780;29;20215;-51
2022/08/17 03:14:06;;;;;;;6.78;6.25;;;20.00;99.90;;;-141.84;68.72;20964.31;4878975;29;20235;-49
2022/08/17 03:16:35;;;;;;;6.85;6.15;;;20.00;99.90;;;-141.84;68.62;20976.53;4879027;29;20314;-52
2022/08/17 03:19:03;;;;;;;7.20;6.35;;;19.90;99.90;;;-141.84;68.62;21000.91;4878926;29;20291;-51
2022/08/17 03:21:31;;;;;;;15.55;14.05;;;20.00;99.90;;;-141.84;69.36;20988.72;4878878;29;20750;-52
2022/08/17 03:23:59;;;;;;;10.13;8.05;;;19.90;99.90;;;-141.84;69.36;20968.38;4878694;29;20286;-51
2022/08/17 03:26:34;;;;;;;8.07;6.50;;;19.80;99.90;;;-141.84;69.05;20958.22;4879605;29;20191;-52
2022/08/17 03:29:02;;;;;;;7.68;6.88;;;19.80;99.90;;;-141.84;69.66;20986.69;4878831;29;20241;-55
2022/08/17 03:31:32;;;;;;;8.23;7.43;;;19.80;99.90;;;-141.84;70.00;20911.47;4878850;29;20786;-51
2022/08/17 03:34:04;;;;;;;6.95;6.18;;;19.80;99.90;;;-141.84;69.73;20958.22;4879079;29;20227;-52
2022/08/17 03:36:32;;;;;;;6.82;6.13;;;19.80;99.90;;;-141.84;69.49;20919.59;4878741;29;20784;-50
2022/08/17 03:39:03;;;;;;;7.28;6.57;;;19.80;99.90;;;-141.84;69.14;20992.78;4878750;29;20674;-51
2022/08/17 03:41:31;;;;;;;6.55;5.95;;;19.80;99.90;;;-141.84;69.24;20970.41;4879449;29;20211;-48
2022/08/17 03:44:00;;;;;;;7.10;6.25;;;19.80;99.90;;;-141.84;69.01;20948.06;4878811;29;20239;-49
2022/08/17 03:57:32;;;;;;;7.18;5.93;;;19.80;99.90;;;-141.84;68.50;20968.38;4878532;29;20235;-49
2022/08/17 04:00:00;;;;;;;6.80;6.20;;;19.80;99.90;;;-141.84;68.36;20946.03;4878626;29;20294;-50
2022/08/17 04:02:32;;;;;;;7.05;6.43;;;19.90;99.90;;;-141.84;68.61;20944.00;4878485;29;20203;-49
2022/08/17 04:05:02;;;;;;;9.23;6.30;;;19.80;99.90;;;-141.84;68.43;21009.03;4878356;29;20227;-52
2022/08/17 04:07:31;;;;;;;6.00;5.40;;;19.80;99.90;;;-141.84;68.10;20933.81;4878194;29;20241;-50
2022/08/17 04:10:00;;;;;;;6.68;6.07;;;19.90;99.90;;;-141.84;68.20;20925.69;4878094;29;20310;-53
2022/08/17 04:12:43;;;;;;;6.25;5.60;;;19.80;99.90;;;-141.84;67.57;20990.75;4878219;29;20219;-53
2022/08/17 04:15:12;;;;;;;6.68;5.95;;;19.90;99.90;;;-141.84;67.22;20968.38;4878274;29;20234;-52
2022/08/17 04:17:43;;;;;;;7.05;6.35;;;20.00;99.90;;;-141.84;66.12;21078.16;4878583;29;20199;-50
2022/08/17 04:20:13;;;;;;;7.97;6.15;;;20.00;99.90;;;-141.84;65.70;21029.38;4878262;29;20319;-51
2022/08/17 04:22:56;;;;;;;6.57;5.97;;;20.20;99.90;;;-141.84;64.92;21065.97;4878161;29;20815;-48
2022/08/17 04:25:26;;;;;;;8.63;6.55;;;20.30;99.90;;;-141.84;63.68;21084.28;4878098;29;20223;-52
2022/08/17 04:27:55;;;;;;;7.75;5.90;;;20.40;99.90;;;-141.84;62.27;21159.50;4878116;29;20235;-55
2022/08/17 04:30:23;;;;;;;6.35;5.75;;;20.50;99.90;;;-141.84;62.74;21167.63;4877870;29;20766;-51
2022/08/17 04:32:55;;;;;;;7.05;6.20;;;20.70;99.90;;;-141.84;62.89;21179.81;4878129;29;20207;-48
2022/08/17 04:35:38;;;;;;;6.65;5.80;;;20.70;99.90;;;-141.84;63.05;21161.53;4877408;29;20219;-50
2022/08/17 04:38:09;;;;;;;6.70;6.00;;;20.80;99.90;;;-141.84;62.65;21171.69;4877559;29;20251;-49
2022/08/17 04:43:26;;;;;;;6.53;5.70;;;20.90;99.90;;;-141.84;62.32;21185.91;4877672;29;20319;-52
2022/08/17 04:45:57;;;;;;;6.90;5.65;;;20.90;99.90;;;-141.84;62.74;21196.09;4877750;29;20231;-52
2022/08/17 04:48:29;;;;;;;7.13;6.15;;;21.00;99.90;;;-141.84;62.59;21200.16;4877615;29;20235;-53
2022/08/17 04:51:12;;;;;;;9.70;6.65;;;21.00;99.90;;;-141.84;61.36;21240.81;4877441;29;20220;-52
2022/08/17 04:53:44;;;;;;;6.43;5.40;;;21.00;99.90;;;-141.84;61.83;21210.31;4878199;29;20198;-50
2022/08/17 04:56:21;;;;;;;7.65;5.78;;;21.00;99.90;;;-141.84;62.28;21214.38;4877229;29;20235;-50
2022/08/17 04:58:52;;;;;;;7.72;6.15;;;21.10;99.90;;;-141.84;62.20;21214.38;4877361;29;20596;-50
2022/08/17 05:01:25;;;;;;;6.57;5.97;;;21.00;99.90;;;-141.84;62.80;21204.22;4877471;29;20239;-47
2022/08/17 05:03:57;;;;;;;6.50;5.90;;;21.00;99.90;;;-141.84;62.77;21161.53;4877709;29;20231;-50
2022/08/17 05:06:29;;;;;;;7.20;5.85;;;21.00;99.90;;;-141.84;63.07;21159.50;4877127;29;20228;-49
2022/08/17 05:08:59;;;;;;;7.88;6.60;;;21.00;99.90;;;-141.84;62.99;21204.22;4877933;29;20191;-50
2022/08/17 05:11:29;;;;;;;10.32;6.47;;;21.00;99.90;;;-141.84;62.13;21185.91;4877886;29;20215;-47
2022/08/17 05:13:59;;;;;;;6.82;5.95;;;21.00;99.90;;;-141.84;62.13;21210.31;4877349;29;20235;-49
2022/08/17 05:16:28;;;;;;;6.72;5.90;;;21.00;99.90;;;-141.84;61.82;21212.34;4877179;29;20239;-51
2022/08/17 05:18:58;;;;;;;7.30;5.78;;;21.00;99.90;;;-141.84;61.97;21200.16;4877246;29;20247;-49
2022/08/17 05:21:27;;;;;;;11.05;6.18;;;21.10;99.90;;;-141.84;61.56;21216.41;4877347;29;20230;-51
2022/08/17 05:23:57;;;;;;;8.13;6.38;;;21.10;99.90;;;-141.84;61.47;21242.84;4877285;29;20772;-52
2022/08/17 05:26:27;;;;;;;7.88;5.68;;;21.00;99.90;;;-141.84;61.70;21208.28;4877630;29;20217;-48
2022/08/17 05:28:58;;;;;;;7.18;6.07;;;21.00;99.90;;;-141.84;61.48;21181.84;4876970;29;20327;-51
2022/08/17 05:31:31;;;;;;;7.88;6.13;;;21.00;99.90;;;-141.84;62.03;21222.53;4877257;29;20242;-50
2022/08/17 05:34:00;;;;;;;10.00;6.25;;;21.00;99.90;;;-141.84;60.99;21246.91;4877246;29;20319;-48
2022/08/17 05:36:29;;;;;;;10.15;7.88;;;21.00;99.90;;;-141.84;60.12;21269.28;4876804;29;20318;-52
2022/08/17 05:39:13;;;;;;;6.97;5.65;;;21.10;99.90;;;-141.84;60.42;21295.72;4877117;29;20200;-49
2022/08/17 05:41:46;;;;;;;8.13;6.00;;;21.10;99.90;;;-141.84;60.16;21285.53;4877521;29;20244;-49
2022/08/17 05:44:16;;;;;;;7.72;5.82;;;21.20;99.90;;;-141.84;59.53;21320.09;4876440;29;20661;-48
2022/08/17 05:46:53;;;;;;;11.38;6.38;;;21.30;99.90;;;-141.84;58.73;21362.81;4879060;29;20235;-47
2022/08/17 05:49:28;;;;;;;7.10;5.75;;;21.50;99.90;;;-141.84;58.55;21379.06;4880284;29;20318;-51
2022/08/17 05:52:16;;;;;;;9.77;6.35;;;21.60;99.90;;;-141.84;56.77;21480.72;4880325;29;20273;-48
2022/08/17 05:55:16;;;;;;;9.63;6.78;;;21.70;99.90;;;-141.84;56.95;21484.78;4880444;29;20239;-52
2022/08/17 05:57:59;;;;;;;16.95;6.68;;;21.80;99.90;;;-141.84;56.83;21513.25;4880610;29;20235;-47
2022/08/17 06:00:35;;;;;;;7.13;6.00;;;21.90;99.90;;;-141.84;57.13;21488.88;4880376;29;20231;-48
2022/08/17 06:03:29;;;;;;;11.20;6.35;;;22.00;99.90;;;-141.84;56.65;21490.91;4880033;29;20601;-47
2022/08/17 06:06:25;;;;;;;6.38;5.28;;;22.10;99.90;;;-141.84;56.38;21533.59;4880623;29;20555;-48
2022/08/17 06:09:18;;;;;;;5.72;5.18;;;22.10;99.90;;;-141.84;56.52;21519.34;4861451;29;20231;-52
2022/08/17 06:12:02;;;;;;;8.50;6.70;;;22.20;99.90;;;-141.84;55.55;21560.03;4862266;29;20192;-49
2022/08/17 06:14:58;;;;;;;11.20;6.57;;;22.30;99.90;;;-141.84;56.04;21584.44;4861554;29;20216;-47
2022/08/17 06:17:28;;;;;;;12.98;6.47;;;22.30;99.90;;;-141.84;55.42;21643.38;4861658;29;20307;-51
2022/08/17 06:20:03;;;;;;;12.38;6.97;;;22.30;99.90;;;-141.84;55.21;21582.38;4876391;29;20262;-53
2022/08/17 06:22:36;;;;;;;9.80;7.57;;;22.40;99.90;;;-141.84;55.17;21604.75;4879463;29;20328;-50
2022/08/17 06:25:15;;;;;;;8.98;6.82;;;22.50;99.90;;;-141.84;55.07;21629.16;4879933;29;20234;-49
2022/08/17 06:27:49;;;;;;;6.57;5.90;;;22.50;99.90;;;-141.84;54.63;21661.69;4879651;29;20223;-46
2022/08/17 06:30:25;;;;;;;8.10;6.05;;;22.60;99.90;;;-141.84;54.89;21696.25;4879742;29;20230;-48
2022/08/17 06:33:04;;;;;;;9.25;5.90;;;22.70;99.90;;;-141.84;55.14;21692.19;4879819;29;20294;-52
2022/08/17 06:35:41;;;;;;;7.80;6.35;;;22.70;99.90;;;-141.84;54.54;21686.09;4861259;29;20684;-50
2022/08/17 06:38:23;;;;;;;11.10;6.80;;;22.80;99.90;;;-141.84;53.98;21734.88;4877871;29;20337;-46
2022/08/17 06:41:19;;;;;;;9.50;6.88;;;22.80;99.90;;;-141.84;53.65;21736.94;4879333;29;20291;-50
2022/08/17 06:44:06;;;;;;;9.15;6.68;;;22.80;99.90;;;-141.84;54.28;21726.75;4879410;29;20226;-49
2022/08/17 06:46:38;;;;;;;9.32;6.63;;;22.80;99.90;;;-141.84;53.52;21726.75;4879500;29;20369;-50
2022/08/17 06:49:20;;;;;;;8.70;7.20;;;22.80;99.90;;;-141.84;53.47;21761.31;4879193;29;20235;-49
2022/08/17 06:51:56;;;;;;;8.38;6.78;;;22.90;99.90;;;-141.84;52.63;21822.31;4879296;29;20784;-48
2022/08/17 06:54:37;;;;;;;9.35;7.10;;;23.00;99.90;;;-141.84;52.23;21863.00;4879095;29;20306;-51
2022/08/17 06:57:17;;;;;;;8.45;6.97;;;23.20;99.90;;;-141.84;52.15;21850.78;4878673;29;20211;-48
2022/08/17 06:59:52;;;;;;;8.35;6.63;;;23.40;99.90;;;-141.84;50.42;21948.41;4879478;29;20287;-51
2022/08/17 07:02:40;;;;;;;8.18;6.78;;;23.50;99.90;;;-141.84;50.73;21930.09;4879118;29;20283;-47
2022/08/17 07:05:40;;;;;;;9.05;6.60;;;23.60;99.90;;;-141.84;49.98;22052.09;4860676;29;20224;-48
2022/08/17 07:08:18;;;;;;;12.35;7.05;;;23.80;99.90;;;-141.84;50.32;22005.34;4877299;29;20233;-47
2022/08/17 07:10:51;;;;;;;11.80;7.20;;;23.90;99.90;;;-141.84;49.34;22066.34;4877369;29;20325;-48
2022/08/17 07:13:46;;;;;;;11.02;7.03;;;24.00;99.90;;;-141.84;49.10;22084.66;4879282;29;20231;-50
2022/08/17 07:16:27;;;;;;;6.80;6.03;;;24.10;99.90;;;-141.84;48.64;22133.44;4877635;29;20238;-47
2022/08/17 07:18:58;;;;;;;8.38;6.20;;;24.30;99.90;;;-141.84;47.51;22216.81;4879459;29;20611;-47
2022/08/17 07:21:46;;;;;;;9.38;6.40;;;24.60;99.90;;;-141.84;46.79;22389.69;4879773;29;20235;-47
2022/08/17 07:24:31;;;;;;;7.10;6.43;;;24.90;99.90;;;-141.84;46.78;22387.66;4878511;29;20196;-49
2022/08/17 07:27:12;;;;;;;6.72;6.13;;;25.10;99.90;;;-141.84;46.79;22444.59;4877761;29;20545;-51
2022/08/17 07:29:49;;;;;;;7.80;7.00;;;25.40;99.90;;;-141.84;45.12;22562.56;4877781;29;20648;-53
2022/08/17 07:32:23;;;;;;;8.75;6.88;;;25.50;99.90;;;-141.84;44.73;22568.66;4878583;29;20231;-50
2022/08/17 07:35:09;;;;;;;6.88;6.18;;;25.70;99.90;;;-141.84;45.22;22487.31;4877151;29;20242;-47
2022/08/17 07:37:40;;;;;;;6.70;6.10;;;25.60;99.90;;;-141.84;45.21;22544.25;4877785;29;20581;-50
2022/08/17 07:40:34;;;;;;;6.72;6.03;;;25.60;99.90;;;-141.84;44.72;22536.13;4879031;29;20237;-50
2022/08/17 07:43:13;;;;;;;9.75;5.80;;;25.80;99.90;;;-141.84;45.09;22509.69;4878396;29;20243;-47
2022/08/17 07:49:19;;;;;;;9.48;6.10;;;25.70;99.90;;;-141.84;45.00;22464.94;4878081;29;20748;-48
2022/08/17 07:52:08;;;;;;;7.35;6.32;;;25.50;99.90;;;-141.84;44.89;22418.16;4878537;29;20258;-52
2022/08/17 07:54:57;;;;;;;12.25;6.50;;;25.60;99.90;;;-141.84;44.93;22460.88;4878246;29;20235;-49
2022/08/17 07:57:35;;;;;;;8.77;5.53;;;25.60;99.90;;;-141.84;45.09;22422.22;4878378;29;20235;-48
2022/08/17 08:00:18;;;;;;;6.03;5.50;;;25.60;99.90;;;-141.84;45.33;22405.97;4878335;29;20691;-48
2022/08/17 08:03:22;;;;;;;6.38;5.63;;;25.50;99.90;;;-141.84;45.76;22408.00;4878918;29;20646;-50
2022/08/17 08:06:00;;;;;;;8.70;5.97;;;25.50;99.90;;;-141.84;45.47;22424.25;4861239;29;20215;-52
2022/08/17 08:08:37;;;;;;;6.78;6.07;;;25.60;99.90;;;-141.84;45.38;22462.91;4860010;29;20212;-49
2022/08/17 08:11:14;;;;;;;6.40;5.75;;;25.60;99.90;;;-141.84;45.47;22458.84;4875822;29;20238;-52
2022/08/17 08:13:44;;;;;;;7.03;5.95;;;25.60;99.90;;;-141.84;45.20;22485.28;4877999;29;20235;-46
2022/08/17 08:16:23;;;;;;;7.88;5.70;;;25.70;99.90;;;-141.84;45.12;22481.22;4878036;29;20258;-48
2022/08/17 08:18:56;;;;;;;6.40;5.55;;;25.80;99.90;;;-141.84;44.76;22511.72;4878503;29;20239;-49
2022/08/17 08:21:42;;;;;;;7.07;5.95;;;25.90;99.90;;;-141.84;44.65;22523.91;4877874;29;20266;-48
2022/08/17 08:24:30;;;;;;;7.00;5.78;;;26.00;99.90;;;-141.84;44.58;22527.97;4877930;29;20287;-52
2022/08/17 08:27:12;;;;;;;8.07;5.63;;;26.00;99.90;;;-141.84;44.13;22615.44;4878031;29;20202;-53
2022/08/17 08:29:53;;;;;;;9.57;5.28;;;26.20;99.90;;;-141.84;43.54;22617.47;4878020;29;20643;-47
2022/08/17 08:32:45;;;;;;;7.90;5.35;;;26.30;99.90;;;-141.84;43.13;22692.72;4877634;29;20314;-48
2022/08/17 08:35:29;;;;;;;6.18;5.57;;;26.50;99.90;;;-141.84;43.19;22753.75;4877635;29;20233;-47
2022/08/17 08:38:13;;;;;;;6.60;5.18;;;26.50;99.90;;;-141.84;41.65;22725.25;4877386;29;20239;-45
2022/08/17 08:41:13;;;;;;;5.35;4.57;;;26.60;99.90;;;-141.84;41.75;22784.25;4877567;29;20314;-52
2022/08/17 08:43:53;;;;;;;10.25;5.50;;;26.70;99.90;;;-141.84;41.60;22826.97;4877726;29;20235;-47
2022/08/17 08:46:35;;;;;;;8.23;5.78;;;26.80;99.90;;;-141.84;41.53;22802.56;4877433;29;20762;-48
2022/08/17 08:49:38;;;;;;;11.60;5.85;;;26.80;99.90;;;-141.84;40.79;22926.63;4877537;29;20249;-51
2022/08/17 08:53:03;;;;;;;8.80;5.32;;;27.00;99.90;;;-141.84;41.29;22875.78;4877484;29;20620;-49
2022/08/17 08:55:53;;;;;;;6.20;5.15;;;27.10;99.90;;;-141.84;41.38;22924.59;4877296;29;20243;-47
2022/08/17 08:58:34;;;;;;;12.32;5.43;;;27.20;99.90;;;-141.84;40.67;22942.91;4877288;29;20269;-48
2022/08/17 09:01:20;;;;;;;8.68;5.30;;;27.30;99.90;;;-141.84;40.55;22967.31;4877259;29;20235;-53
2022/08/17 09:04:24;;;;;;;8.00;5.40;;;27.30;99.90;;;-141.84;39.73;23060.88;4877398;29;20314;-48
2022/08/17 09:07:15;;;;;;;11.93;5.50;;;27.60;99.90;;;-141.84;39.51;23123.94;4877088;29;20263;-47
2022/08/17 09:09:59;;;;;;;7.10;5.00;;;27.70;99.90;;;-141.84;39.35;23189.00;4877220;29;20237;-46
2022/08/17 09:12:41;;;;;;;6.30;5.40;;;27.90;99.90;;;-141.84;39.18;23195.13;4877293;29;20318;-49
2022/08/17 09:15:17;;;;;;;8.85;5.05;;;28.00;99.90;;;-141.84;38.74;23262.25;4877265;29;20191;-47
2022/08/17 09:17:57;;;;;;;5.32;4.60;;;28.10;99.90;;;-141.84;38.42;23193.09;4877790;29;20215;-50
2022/08/17 09:20:54;;;;;;;6.30;4.75;;;28.20;99.90;;;-141.84;38.81;23197.16;4859282;29;20224;-50
2022/08/17 09:23:33;;;;;;;5.30;4.80;;;28.20;99.90;;;-141.84;38.86;23201.22;4880469;29;20249;-48
2022/08/17 09:26:11;;;;;;;7.43;4.97;;;28.20;99.90;;;-141.84;38.49;23199.19;4880713;29;20227;-49
2022/08/17 09:28:47;;;;;;;5.45;4.50;;;28.10;99.90;;;-141.84;38.77;23189.00;4880880;29;20311;-46
2022/08/17 09:31:22;;;;;;;5.85;4.45;;;28.20;99.90;;;-141.84;38.79;23225.63;4880671;29;20233;-52
2022/08/17 09:33:52;;;;;;;6.18;4.60;;;28.10;99.90;;;-141.84;39.01;23207.31;4880893;29;20226;-49
2022/08/17 09:36:31;;;;;;;4.85;4.45;;;28.20;99.90;;;-141.84;38.90;23225.63;4880771;29;20227;-50
2022/08/17 09:39:06;;;;;;;6.05;4.70;;;28.20;99.90;;;-141.84;38.14;23282.59;4880656;29;20211;-53
2022/08/17 09:41:45;;;;;;;5.10;4.30;;;28.30;99.90;;;-141.84;38.43;23311.06;4880968;29;20198;-50
2022/08/17 09:44:30;;;;;;;5.90;4.50;;;28.40;99.90;;;-141.84;37.66;23345.66;4880615;29;20281;-50
2022/08/17 09:47:09;;;;;;;5.50;4.90;;;28.50;99.90;;;-141.84;38.07;23355.81;4880380;29;20245;-48
2022/08/17 09:49:45;;;;;;;5.20;4.75;;;28.60;99.90;;;-141.84;37.32;23382.25;4880484;29;20235;-50
2022/08/17 09:52:21;;;;;;;5.13;4.57;;;28.60;99.90;;;-141.84;37.11;23396.50;4880394;29;20310;-46
2022/08/17 09:54:53;;;;;;;4.72;4.32;;;28.60;99.90;;;-141.84;36.35;23418.88;4880238;29;20659;-51
2022/08/17 09:57:46;;;;;;;4.65;4.25;;;28.70;99.90;;;-141.84;36.74;23441.25;4880292;29;20310;-51
2022/08/17 10:00:23;;;;;;;6.05;4.28;;;28.80;99.90;;;-141.84;36.77;23459.56;4880123;29;20192;-50
2022/08/17 10:03:27;;;;;;;6.22;4.60;;;28.80;99.90;;;-141.84;36.78;23492.09;4880617;29;20187;-51
2022/08/17 10:06:07;;;;;;;5.20;4.03;;;28.90;99.90;;;-141.84;36.80;23481.94;4880018;29;20327;-51
2022/08/17 10:08:50;;;;;;;5.28;4.22;;;28.90;99.90;;;-141.84;36.56;23467.69;4880561;29;20251;-50
2022/08/17 10:14:29;;;;;;;4.57;4.18;;;29.00;99.90;;;-141.84;36.42;23545.00;4879770;29;20307;-48
2022/08/17 10:17:27;;;;;;;5.25;4.03;;;29.10;99.90;;;-141.84;36.70;23518.56;4880102;29;20266;-50
2022/08/17 10:20:09;;;;;;;5.78;3.90;;;29.10;99.90;;;-141.84;36.08;23534.84;4879903;29;20257;-50
2022/08/17 10:28:46;;;;;;;5.43;4.25;;;29.20;99.90;;;-141.84;36.07;23557.22;4879317;29;20238;-50
2022/08/17 10:31:27;;;;;;;4.57;4.18;;;29.20;99.90;;;-141.84;35.59;23593.81;4879745;29;20718;-50
2022/08/17 10:34:29;;;;;;;4.35;3.95;;;29.20;99.90;;;-141.84;35.64;23601.97;4878875;29;20254;-50
2022/08/17 10:37:45;;;;;;;4.03;3.70;;;29.30;99.90;;;-141.84;35.32;23593.81;4879641;29;20242;-48
2022/08/17 10:40:34;;;;;;;4.57;4.15;;;29.30;99.90;;;-141.84;35.78;23656.88;4846325;29;20778;-53
2022/08/17 10:43:23;;;;;;;4.55;4.10;;;29.40;99.90;;;-141.84;35.43;23634.50;4879743;29;20753;-49
2022/08/17 10:46:03;;;;;;;4.15;3.78;;;29.30;99.90;;;-141.84;35.49;23626.38;4879576;29;20231;-50
2022/08/17 10:49:24;;;;;;;4.57;4.18;;;29.40;99.90;;;-141.84;34.57;23728.09;4879452;29;20235;-51
2022/08/17 10:51:55;;;;;;;7.43;3.80;;;29.50;99.90;;;-141.84;35.02;23693.50;4879342;29;20683;-48
2022/08/17 10:54:46;;;;;;;4.90;4.50;;;29.60;99.90;;;-141.84;34.66;23713.84;4879467;29;20231;-48
2022/08/17 10:57:40;;;;;;;4.10;3.78;;;29.70;99.90;;;-141.84;34.90;23719.97;4879544;29;20656;-48
2022/08/17 11:00:14;;;;;;;4.20;3.75;;;29.60;99.90;;;-141.84;34.80;23738.25;4879064;29;20586;-48
2022/08/17 11:02:49;;;;;;;5.82;4.53;;;29.60;99.90;;;-141.84;35.05;23711.81;4879700;29;20243;-46
2022/08/17 11:05:53;;;;;;;4.70;4.13;;;29.60;99.90;;;-141.84;35.01;23756.56;4879045;29;20617;-51
2022/08/17 11:08:47;;;;;;;4.45;4.05;;;29.60;99.90;;;-141.84;35.05;23728.09;4878813;29;20502;-48
2022/08/17 11:12:05;;;;;;;4.13;3.83;;;29.60;99.90;;;-141.84;34.50;23791.16;4879226;29;20350;-47
2022/08/17 11:15:01;;;;;;;5.50;4.15;;;29.70;99.90;;;-141.84;34.69;23748.44;4860681;29;20231;-51